Kenosha, WI (53141)

3:52 PM CST on February 08, 2016 (GMT -0600)
APRSWXNET | | Change Station
CLOSE
Current Station
Personal Weather Station
Location: Kenosha, WI
Elevation: 613 ft
Nearby Weather Stations

Elev 613 ft 42.60 °N, 87.83 °W | Updated 24 minutes ago

Overcast
Overcast
28 °F
Feels Like 28 °F
N
1
Wind Variable Wind from SW
Gusts 10.0 mph

Today
High -- | Low -- °F
--% Chance of Precip.
Yesterday
High -- | Low -- °F
Precip. -- in
Pressure 29.70 in
Visibility 10.0 miles
Clouds Mostly Cloudy 1800 ft
Overcast 3100 ft
Windchill 28 °F
Dew Point 23 °F
Humidity 80%
Rainfall in
Snow Depth Not available.
6:57 AM 5:13 PM
New Moon, 0% visible
METAR KENW 082053Z 29012KT 10SM BKN018 OVC031 M03/M07 A2967 RMK AO2 SNE04 SLP056 P0000 60000 T10281067 53007
Pressure 29.70 in
Visibility 10.0 miles
Clouds Mostly Cloudy 1800 ft
Overcast 3100 ft
Windchill 28 °F
Dew Point 23 °F
Humidity 80%
Rainfall in
Snow Depth Not available.
6:57 AM 5:13 PM
New Moon, 0% visible
METAR KENW 082053Z 29012KT 10SM BKN018 OVC031 M03/M07 A2967 RMK AO2 SNE04 SLP056 P0000 60000 T10281067 53007

10-Day Weather Forecast

Almanac

Astronomy

Feb. 08, 2016 Rise Set
Actual Time
Civil Twilight
Nautical Twilight
Astronomical Twilight
Moon
Length of Visible Light
Length of Day
Tomorrow will be .
, % of the Moon is Illuminated

Today's Extremes

State Highs State Lows

Community

WunderPhotos

Upload Photos

1,891,512 photos uploaded!

WunderBlog® & News

Nearby

Air Quality

  Air Quality AQ Index Pollutant
Not available.

Snow Depth

Station Depth Elevation

Earthquake Activity

City Distance Mag. Time & Date
Minimum magnitude displayed is 2.5.

Coastal Water Temperatures

Place Temperature

Stations

Nearby Weather Stations

Station Location Temp. Windchill Dew Point Humidity Wind Precip. Elev Updated Type
                   

Watches & Warnings

There are currently no watches in effect.